WetterOnline ( http://www.wetteronline.de )

Wetter aktuell Sankt Aldegund

Aktuelles Wetter: Deuselbach (483m)

6-stündlich | Neueste Meldungen
Ortszeit Temperatur Wetter
Sa, 21.04. 14:00 22.5° C bewölkt
Sa, 21.04. 8:00 14.4° C wolkenlos
Sa, 21.04. 2:00 15.6° C leicht bewölkt
Fr, 20.04. 20:00 22.8° C leicht bewölkt
Fr, 20.04. 14:00 24.2° C wolkig
Fr, 20.04. 8:00 15.3° C wolkig
Fr, 20.04. 2:00 17.4° C wolkenlos
Do, 19.04. 20:00 21.8° C wolkig
Ortszeit Temperatur Wetter
Sa, 21.04. 15:00 22.5° C wolkig
Sa, 21.04. 14:50 22.5° C wolkig
Sa, 21.04. 14:40 22.8° C leicht bewölkt
Sa, 21.04. 14:30 23.3° C leicht bewölkt
Sa, 21.04. 14:20 23.3° C leicht bewölkt
Sa, 21.04. 14:10 23.3° C leicht bewölkt
Sa, 21.04. 14:00 22.5° C bewölkt
Sa, 21.04. 13:30 22.1° C bewölkt
Sa, 21.04. 13:00 21.8° C bewölkt
Sa, 21.04. 12:30 22.4° C fast wolkenlos
Sa, 21.04. 12:00 22.8° C wolkenlos
Ortszeit Relative Feuchte Sichtweite
Sa, 21.04. 14:00 45% 16 km
Sa, 21.04. 8:00 75% 9 km
Sa, 21.04. 2:00 55% 45 km
Fr, 20.04. 20:00 35% 50 km
Fr, 20.04. 14:00 25% 30 km
Fr, 20.04. 8:00 50% 45 km
Fr, 20.04. 2:00 43% 50 km
Do, 19.04. 20:00 39% 40 km
Ortszeit Relative Feuchte Sichtweite
Sa, 21.04. 15:00 47% 17 km
Sa, 21.04. 14:50 47% -
Sa, 21.04. 14:40 45% -
Sa, 21.04. 14:30 47% 16 km
Sa, 21.04. 14:20 47% -
Sa, 21.04. 14:10 45% -
Sa, 21.04. 14:00 45% 16 km
Sa, 21.04. 13:30 50% 13 km
Sa, 21.04. 13:00 49% 15 km
Sa, 21.04. 12:30 47% 15 km
Sa, 21.04. 12:00 44% 14 km
Ortszeit Niederschlagsmenge Niederschlagsart
Sa, 21.04. 14:00 0.0 l/m2 in 6 Std. -
Sa, 21.04. 8:00 0.0 l/m2 in 12 Std. -
Sa, 21.04. 2:00 0.0 l/m2 in 6 Std. -
Fr, 20.04. 20:00 0.0 l/m2 in 12 Std. -
Fr, 20.04. 14:00 0.0 l/m2 in 6 Std. -
Fr, 20.04. 8:00 0.0 l/m2 in 12 Std. -
Fr, 20.04. 2:00 0.0 l/m2 in 6 Std. -
Do, 19.04. 20:00 0.0 l/m2 in 12 Std. -
Ortszeit Niederschlagsmenge Niederschlagsart
Sa, 21.04. 15:00 0.0 l/m2 in 1 Std. -
Sa, 21.04. 14:50 keine Meldung -
Sa, 21.04. 14:40 keine Meldung -
Sa, 21.04. 14:30 0.0 l/m2 in 1 Std. -
Sa, 21.04. 14:20 keine Meldung -
Sa, 21.04. 14:10 keine Meldung -
Sa, 21.04. 14:00 0.0 l/m2 in 1 Std. -
Sa, 21.04. 13:30 0.0 l/m2 in 1 Std. -
Sa, 21.04. 13:00 0.0 l/m2 in 1 Std. -
Sa, 21.04. 12:30 0.0 l/m2 in 1 Std. -
Sa, 21.04. 12:00 0.0 l/m2 in 1 Std. -
Ortszeit Stärke Spitze Richtung
km/h Bft. km/h Grad Sektor
Sa, 21.04. 14:00 9 2 22 70° O
Sa, 21.04. 8:00 4 1 18 160° S
Sa, 21.04. 2:00 7 2 18 140° SO
Fr, 20.04. 20:00 4 1 25 120° SO
Fr, 20.04. 14:00 11 2 22 20° N
Fr, 20.04. 8:00 6 1 24 100° O
Fr, 20.04. 2:00 15 3 24 130° SO
Do, 19.04. 20:00 18 3 43 100° O
Ortszeit Stärke Spitze Richtung
km/h Bft. km/h Grad Sektor
Sa, 21.04. 15:00 14 3 22 60° NO
Sa, 21.04. 14:50 14 3 - 60° NO
Sa, 21.04. 14:40 14 3 - 30° NO
Sa, 21.04. 14:30 11 2 22 60° NO
Sa, 21.04. 14:20 11 2 - 60° NO
Sa, 21.04. 14:10 14 3 - 70° O
Sa, 21.04. 14:00 9 2 19 70° O
Sa, 21.04. 13:30 7 2 18 20° N
Sa, 21.04. 13:00 11 2 22 20° N
Sa, 21.04. 12:30 14 3 22 10° N
Sa, 21.04. 12:00 7 2 14 40° NO
Ortszeit Untergrenze Bedeckung Gattung
total tief tief mittel hoch
Sa, 21.04. 14:00 1800 m 7/8 7/8 - - -
Sa, 21.04. 8:00 2100 m 0/8 0/8 - - -
Sa, 21.04. 2:00 2400 m 2/8 1/8 - - -
Fr, 20.04. 20:00 9000 m 8/8 0/8 - - -
Fr, 20.04. 14:00 2700 m 8/8 3/8 - - -
Fr, 20.04. 8:00 3600 m 7/8 1/8 - - -
Fr, 20.04. 2:00 - 0/8 0/8 - - -
Do, 19.04. 20:00 - 8/8 - - - -
Ortszeit Bedeckungsgrad in Achtel und Wolkenuntergrenze
Sa, 21.04. 15:00 4(1500m) 5(2100m) 6(2400m)
Sa, 21.04. 14:50 4(1500m) 5(2100m) 6(2400m)
Sa, 21.04. 14:40 2(1500m) 4(2400m)
Sa, 21.04. 14:30 2(1800m) 4(2700m)
Sa, 21.04. 14:20 2(1800m) 2(2400m) 4(2700m)
Sa, 21.04. 14:10 2(1800m) 3(2400m) 4(2700m)
Sa, 21.04. 14:00 6(1800m) 7(2400m)
Sa, 21.04. 13:30 7(2100m) 7(2400m)
Sa, 21.04. 13:00 6(2100m) 7(2700m)
Sa, 21.04. 12:30 1(2100m)
Sa, 21.04. 12:00 keine Wolken
Ortszeit Luftdruck NN (hPa) Tendenz (hPa in 3 Std.)
Sa, 21.04. 14:00 1019 - 0,9
Sa, 21.04. 8:00 1021 + 0,3
Sa, 21.04. 2:00 1022 - 0,2
Fr, 20.04. 20:00 1020 - 0,9
Fr, 20.04. 14:00 1022 - 0,5
Fr, 20.04. 8:00 1024 - 0,1
Fr, 20.04. 2:00 1025 - 0,7
Do, 19.04. 20:00 1024 - 0,4
Ortszeit Luftdruck NN (hPa) Tendenz (hPa in 3 Std.)
Sa, 21.04. 15:00 1018 - 1,2
Sa, 21.04. 14:50 1018 keine Meldung
Sa, 21.04. 14:40 1018 keine Meldung
Sa, 21.04. 14:30 1018 - 1,1
Sa, 21.04. 14:20 1018 keine Meldung
Sa, 21.04. 14:10 1018 keine Meldung
Sa, 21.04. 14:00 1019 - 0,9
Sa, 21.04. 13:30 1019 - 0,5
Sa, 21.04. 13:00 1019 - 0,5
Sa, 21.04. 12:30 1020 - 0,2
Sa, 21.04. 12:00 1020 0,0
Ortszeit Schneehöhe (cm)
Sa, 21.04. 14:00 0
Sa, 21.04. 8:00 0
Sa, 21.04. 2:00 0
Fr, 20.04. 20:00 0
Fr, 20.04. 14:00 0
Fr, 20.04. 8:00 0
Fr, 20.04. 2:00 0
Do, 19.04. 20:00 0
Ortszeit Schneehöhe (cm)
Sa, 21.04. 15:00 0
Sa, 21.04. 14:50 0
Sa, 21.04. 14:40 0
Sa, 21.04. 14:30 0
Sa, 21.04. 14:20 0
Sa, 21.04. 14:10 0
Sa, 21.04. 14:00 0
Sa, 21.04. 13:30 0
Sa, 21.04. 13:00 0
Sa, 21.04. 12:30 0
Sa, 21.04. 12:00 0
Link zu dieser Seite / Seite empfehlen

Das Wetter in ...